createdAt,value
2024-01-20T00:00:45.788Z,-0.30
2024-01-20T00:03:12.899Z,-0.30
2024-01-20T00:05:40.171Z,-0.30
2024-01-20T00:08:07.114Z,-0.30
2024-01-20T00:10:34.922Z,-0.30
2024-01-20T00:13:02.112Z,-0.40
2024-01-20T00:15:29.080Z,-0.40
2024-01-20T00:17:56.602Z,-0.30
2024-01-20T00:20:23.762Z,-0.40
2024-01-20T00:22:51.440Z,-0.40
2024-01-20T00:25:18.544Z,-0.40
2024-01-20T00:27:45.848Z,-0.50
2024-01-20T00:30:13.459Z,-0.50
2024-01-20T00:32:40.844Z,-0.60
2024-01-20T00:35:08.893Z,-0.60
2024-01-20T00:37:40.097Z,-0.60
2024-01-20T00:40:08.367Z,-0.60
2024-01-20T00:42:35.813Z,-0.70
2024-01-20T00:45:03.985Z,-0.60
2024-01-20T00:47:31.809Z,-0.60
2024-01-20T00:49:59.225Z,-0.60
2024-01-20T00:52:26.624Z,-0.70
2024-01-20T00:54:53.647Z,-0.60
2024-01-20T00:57:20.649Z,-0.60
2024-01-20T00:59:48.048Z,-0.70
2024-01-20T01:02:17.973Z,-0.60
2024-01-20T01:04:45.725Z,-0.60
2024-01-20T01:07:13.164Z,-0.70
2024-01-20T01:09:40.106Z,-0.70
2024-01-20T01:12:07.165Z,-0.70
2024-01-20T01:14:34.416Z,-0.60
2024-01-20T01:17:02.375Z,-0.70
2024-01-20T01:19:29.437Z,-0.70
2024-01-20T01:21:56.414Z,-0.70
2024-01-20T01:24:23.335Z,-0.70
2024-01-20T01:26:50.515Z,-0.70
2024-01-20T01:29:18.324Z,-0.70
2024-01-20T01:31:45.975Z,-0.70
2024-01-20T01:34:13.299Z,-0.80
2024-01-20T01:36:40.346Z,-0.80
2024-01-20T01:39:07.560Z,-0.80
2024-01-20T01:41:34.595Z,-0.80
2024-01-20T01:44:02.209Z,-0.90
2024-01-20T01:46:30.503Z,-0.90
2024-01-20T01:48:58.452Z,-0.90
2024-01-20T01:51:25.509Z,-0.90
2024-01-20T01:53:53.129Z,-1.00
2024-01-20T01:56:21.333Z,-1.20
2024-01-20T01:58:48.460Z,-1.20
2024-01-20T02:01:15.572Z,-1.20
2024-01-20T02:03:42.968Z,-1.10
2024-01-20T02:06:10.701Z,-1.10
2024-01-20T02:08:40.702Z,-1.00
2024-01-20T02:11:08.340Z,-1.00
2024-01-20T02:13:35.902Z,-1.00
2024-01-20T02:16:04.019Z,-1.00
2024-01-20T02:18:31.497Z,-1.10
2024-01-20T02:20:58.591Z,-1.00
2024-01-20T02:23:26.206Z,-1.00
2024-01-20T02:25:53.258Z,-1.00
2024-01-20T02:28:20.205Z,-1.10
2024-01-20T02:30:48.052Z,-1.10
2024-01-20T02:33:15.324Z,-1.10
2024-01-20T02:35:42.381Z,-1.10
2024-01-20T02:38:09.391Z,-1.10
2024-01-20T02:40:36.511Z,-1.10
2024-01-20T02:43:03.640Z,-1.10
2024-01-20T02:45:30.943Z,-1.10
2024-01-20T02:47:59.232Z,-1.20
2024-01-20T02:50:26.440Z,-1.20
2024-01-20T02:52:53.915Z,-1.20
2024-01-20T02:55:21.010Z,-1.20
2024-01-20T02:57:48.077Z,-1.20
2024-01-20T03:00:15.637Z,-1.20
2024-01-20T03:02:42.946Z,-1.20
2024-01-20T03:05:10.755Z,-1.20
2024-01-20T03:07:37.764Z,-1.20
2024-01-20T03:10:05.350Z,-1.30
2024-01-20T03:12:32.628Z,-1.30
2024-01-20T03:14:59.806Z,-1.30
2024-01-20T03:17:26.770Z,-1.30
2024-01-20T03:19:53.893Z,-1.40
2024-01-20T03:22:20.865Z,-1.40
2024-01-20T03:24:48.722Z,-1.40
2024-01-20T03:27:19.372Z,-1.40
2024-01-20T03:29:46.509Z,-1.40
2024-01-20T03:32:13.881Z,-1.40
2024-01-20T03:34:40.927Z,-1.40
2024-01-20T03:37:08.593Z,-1.40
2024-01-20T03:39:35.944Z,-1.40
2024-01-20T03:42:03.006Z,-1.40
2024-01-20T03:44:30.106Z,-1.40
2024-01-20T03:46:57.211Z,-1.40
2024-01-20T03:49:24.418Z,-1.40
2024-01-20T03:51:51.576Z,-1.40
2024-01-20T03:54:18.821Z,-1.50
2024-01-20T03:56:45.914Z,-1.50
2024-01-20T03:59:13.192Z,-1.50
2024-01-20T04:01:40.879Z,-1.50
2024-01-20T04:04:08.355Z,-1.50
2024-01-20T04:06:35.565Z,-1.50
2024-01-20T04:09:02.555Z,-1.50
2024-01-20T04:11:29.552Z,-1.50
2024-01-20T04:13:56.540Z,-1.50
2024-01-20T04:16:23.503Z,-1.50
2024-01-20T04:18:50.757Z,-1.50
2024-01-20T04:21:17.859Z,-1.60
2024-01-20T04:23:44.839Z,-1.60
2024-01-20T04:26:11.760Z,-1.70
2024-01-20T04:28:38.715Z,-1.70
2024-01-20T04:31:05.720Z,-1.70
2024-01-20T04:33:32.955Z,-1.70
2024-01-20T04:36:00.036Z,-1.80
2024-01-20T04:38:27.932Z,-1.80
2024-01-20T04:40:55.000Z,-1.80
2024-01-20T04:43:21.956Z,-1.80
2024-01-20T04:45:49.003Z,-1.80
2024-01-20T04:48:17.609Z,-1.80
2024-01-20T04:50:44.713Z,-1.90
2024-01-20T04:53:11.879Z,-1.90
2024-01-20T04:55:39.198Z,-2.00
2024-01-20T04:58:06.150Z,-2.00
2024-01-20T05:00:33.684Z,-2.00
2024-01-20T05:03:00.751Z,-2.00
2024-01-20T05:05:27.736Z,-2.00
2024-01-20T05:07:55.254Z,-2.00
2024-01-20T05:10:22.252Z,-2.10
2024-01-20T05:12:49.236Z,-2.10
2024-01-20T05:15:16.532Z,-2.10
2024-01-20T05:17:44.477Z,-2.20
2024-01-20T05:20:15.891Z,-2.20
2024-01-20T05:22:43.560Z,-2.30
2024-01-20T05:25:10.954Z,-2.40
2024-01-20T05:27:38.311Z,-2.40
2024-01-20T05:30:06.514Z,-2.40
2024-01-20T05:32:33.723Z,-2.40
2024-01-20T05:35:01.064Z,-2.40
2024-01-20T05:37:28.083Z,-2.40
2024-01-20T05:39:55.000Z,-2.40
2024-01-20T05:42:22.116Z,-2.40
2024-01-20T05:44:49.115Z,-2.40
2024-01-20T05:47:16.101Z,-2.40
2024-01-20T05:49:43.100Z,-2.50
2024-01-20T05:52:10.102Z,-2.50
2024-01-20T05:54:37.306Z,-2.50
2024-01-20T05:57:04.444Z,-2.50
2024-01-20T05:59:31.490Z,-2.50
2024-01-20T06:01:58.561Z,-2.50
2024-01-20T06:04:25.684Z,-2.50
2024-01-20T06:06:53.890Z,-2.60
2024-01-20T06:09:20.930Z,-2.60
2024-01-20T06:11:47.868Z,-2.60
2024-01-20T06:14:14.996Z,-2.70
2024-01-20T06:16:42.989Z,-2.70
2024-01-20T06:19:10.599Z,-2.70
2024-01-20T06:21:37.673Z,-2.70
2024-01-20T06:24:05.259Z,-2.70
2024-01-20T06:26:32.300Z,-2.70
2024-01-20T06:28:59.254Z,-2.70
2024-01-20T06:31:28.119Z,-2.70
2024-01-20T06:33:56.025Z,-2.70
2024-01-20T06:36:26.518Z,-2.70
2024-01-20T06:38:54.535Z,-2.70
2024-01-20T06:41:21.897Z,-2.70
2024-01-20T06:43:49.020Z,-2.70
2024-01-20T06:46:15.989Z,-2.70
2024-01-20T06:48:43.204Z,-2.70
2024-01-20T06:51:16.465Z,-2.70
2024-01-20T06:53:44.961Z,-2.70
2024-01-20T06:56:12.474Z,-2.70
2024-01-20T06:58:40.285Z,-2.70
2024-01-20T07:01:07.429Z,-2.70
2024-01-20T07:03:34.795Z,-2.60
2024-01-20T07:06:02.187Z,-2.60
2024-01-20T07:08:29.459Z,-2.60
2024-01-20T07:10:56.434Z,-2.60
2024-01-20T07:13:23.360Z,-2.60
2024-01-20T07:15:50.483Z,-2.60
2024-01-20T07:18:17.982Z,-2.60
2024-01-20T07:20:46.089Z,-2.60
2024-01-20T07:23:13.073Z,-2.70
2024-01-20T07:25:40.842Z,-2.70
2024-01-20T07:28:08.212Z,-2.70
2024-01-20T07:30:35.959Z,-2.70
2024-01-20T07:33:03.563Z,-2.70
2024-01-20T07:35:30.617Z,-2.70
2024-01-20T07:37:57.778Z,-2.70
2024-01-20T07:40:24.880Z,-2.70
2024-01-20T07:42:51.955Z,-2.60
2024-01-20T07:45:19.421Z,-2.60
2024-01-20T07:47:48.451Z,-2.60
2024-01-20T07:50:16.380Z,-2.60
2024-01-20T07:52:43.484Z,-2.60
2024-01-20T07:55:10.712Z,-2.60
2024-01-20T07:57:38.211Z,-2.60
2024-01-20T08:00:06.298Z,-2.60
2024-01-20T08:02:35.376Z,-2.60
2024-01-20T08:05:03.090Z,-2.60
2024-01-20T08:07:30.720Z,-2.50
2024-01-20T08:09:58.628Z,-2.50
2024-01-20T08:12:25.963Z,-2.50
2024-01-20T08:14:52.909Z,-2.60
2024-01-20T08:17:21.189Z,-2.60
2024-01-20T08:19:50.580Z,-2.50
2024-01-20T08:22:18.981Z,-2.50
2024-01-20T08:24:45.987Z,-2.50
2024-01-20T08:27:13.425Z,-2.50
2024-01-20T08:29:40.478Z,-2.40
2024-01-20T08:32:07.709Z,-2.40
2024-01-20T08:34:34.934Z,-2.20
2024-01-20T08:37:10.614Z,-2.10
2024-01-20T08:39:38.093Z,-2.00
2024-01-20T08:42:09.701Z,-1.90
2024-01-20T08:44:43.331Z,-1.80
2024-01-20T08:47:16.266Z,-1.70
2024-01-20T08:49:45.513Z,-1.60
2024-01-20T08:52:18.597Z,-1.50
2024-01-20T08:57:33.898Z,-1.30
2024-01-20T09:00:08.734Z,-1.10
2024-01-20T09:02:44.079Z,-1.00
2024-01-20T09:05:17.927Z,-0.80
2024-01-20T09:08:08.504Z,-0.80
2024-01-20T09:10:42.227Z,-0.70
2024-01-20T09:13:28.988Z,-0.70
2024-01-20T09:16:01.731Z,-0.60
2024-01-20T09:18:30.500Z,-0.50
2024-01-20T09:21:03.939Z,-0.40
2024-01-20T09:23:35.429Z,-0.20
2024-01-20T09:26:08.443Z,-0.20
2024-01-20T09:28:40.109Z,-0.10
2024-01-20T09:31:30.299Z,0.00
2024-01-20T09:34:12.527Z,0.10
2024-01-20T09:36:45.681Z,0.20
2024-01-20T09:39:20.781Z,0.20
2024-01-20T09:41:58.700Z,0.30
2024-01-20T09:44:54.788Z,0.40
2024-01-20T09:47:37.157Z,0.40
2024-01-20T09:50:28.194Z,0.40
2024-01-20T09:53:32.415Z,0.40
2024-01-20T09:56:11.302Z,0.50
2024-01-20T09:59:04.542Z,0.50
2024-01-20T10:01:53.998Z,0.60
2024-01-20T10:04:54.612Z,0.60
2024-01-20T10:07:56.879Z,0.70
2024-01-20T10:10:24.025Z,0.90
2024-01-20T10:12:52.815Z,0.90
2024-01-20T10:15:24.068Z,1.00
2024-01-20T10:17:51.324Z,1.10
2024-01-20T10:20:22.812Z,1.10
2024-01-20T10:22:50.575Z,1.20
2024-01-20T10:25:21.766Z,1.30
2024-01-20T10:27:50.143Z,1.40
2024-01-20T10:30:21.018Z,1.40
2024-01-20T10:33:04.049Z,1.50
2024-01-20T10:35:36.443Z,1.50
2024-01-20T10:38:10.396Z,1.50
2024-01-20T10:40:41.569Z,1.60
2024-01-20T10:43:18.243Z,1.70
2024-01-20T10:45:54.348Z,1.80
2024-01-20T10:48:28.510Z,1.90
2024-01-20T10:51:01.213Z,2.00
2024-01-20T10:53:29.080Z,2.00
2024-01-20T10:55:57.359Z,2.10
2024-01-20T10:58:41.134Z,1.90
2024-01-20T11:01:09.755Z,1.80
2024-01-20T11:03:37.767Z,1.80
2024-01-20T11:06:05.299Z,1.80
2024-01-20T11:08:32.673Z,1.80
2024-01-20T11:11:01.160Z,1.80
2024-01-20T11:13:28.286Z,1.90
2024-01-20T11:15:58.811Z,2.00
2024-01-20T11:18:29.237Z,2.00
2024-01-20T11:21:04.965Z,2.10
2024-01-20T11:23:32.235Z,2.20
2024-01-20T11:26:10.408Z,2.20
2024-01-20T11:28:37.994Z,2.30
2024-01-20T11:31:05.114Z,2.30
2024-01-20T11:33:32.825Z,2.40
2024-01-20T11:36:01.436Z,2.50
2024-01-20T11:38:29.966Z,2.40
2024-01-20T11:41:00.996Z,2.40
2024-01-20T11:43:28.583Z,2.40
2024-01-20T11:45:56.807Z,2.40
2024-01-20T11:48:24.608Z,2.50
2024-01-20T11:50:52.600Z,2.50
2024-01-20T11:53:21.923Z,2.60
2024-01-20T11:56:03.061Z,2.60
2024-01-20T11:58:34.190Z,2.70
2024-01-20T12:01:04.743Z,2.70
2024-01-20T12:03:32.015Z,2.70
2024-01-20T12:06:11.910Z,2.70
2024-01-20T12:08:45.997Z,2.70
2024-01-20T12:11:20.815Z,2.70
2024-01-20T12:13:48.579Z,2.60
2024-01-20T12:16:17.706Z,2.60
2024-01-20T12:18:45.174Z,2.60
2024-01-20T12:21:12.357Z,2.60
2024-01-20T12:23:39.802Z,2.60
2024-01-20T12:26:14.344Z,2.60
2024-01-20T12:28:43.674Z,2.60
2024-01-20T12:31:12.355Z,2.60
2024-01-20T12:33:43.497Z,2.60
2024-01-20T12:36:12.012Z,2.40
2024-01-20T12:38:39.391Z,2.40
2024-01-20T12:41:06.380Z,2.40
2024-01-20T12:43:33.799Z,2.40
2024-01-20T12:46:00.970Z,2.50
2024-01-20T12:48:28.444Z,2.50
2024-01-20T12:50:56.508Z,2.40
2024-01-20T12:53:23.597Z,2.50
2024-01-20T12:55:50.765Z,2.40
2024-01-20T12:58:17.926Z,2.50
2024-01-20T13:00:45.453Z,2.50
2024-01-20T13:03:12.619Z,2.50
2024-01-20T13:05:40.014Z,2.50
2024-01-20T13:08:07.313Z,2.60
2024-01-20T13:10:34.286Z,2.60
2024-01-20T13:13:01.353Z,2.60
2024-01-20T13:15:28.648Z,2.70
2024-01-20T13:17:56.283Z,2.80
2024-01-20T13:20:23.521Z,2.70
2024-01-20T13:22:50.684Z,2.60
2024-01-20T13:25:17.764Z,2.60
2024-01-20T13:27:44.809Z,2.70
2024-01-20T13:30:13.009Z,2.70
2024-01-20T13:32:40.908Z,2.70
2024-01-20T13:35:10.630Z,2.70
2024-01-20T13:37:37.969Z,2.70
2024-01-20T13:40:09.571Z,2.70
2024-01-20T13:42:37.681Z,2.60
2024-01-20T13:45:07.044Z,2.60
2024-01-20T13:47:34.686Z,2.60
2024-01-20T13:50:01.857Z,2.70
2024-01-20T13:52:29.308Z,2.80
2024-01-20T13:54:56.806Z,2.90
2024-01-20T13:57:25.799Z,3.00
2024-01-20T13:59:53.002Z,2.90
2024-01-20T14:02:20.138Z,2.90
2024-01-20T14:04:47.625Z,2.90
2024-01-20T14:07:14.788Z,3.00
2024-01-20T14:09:42.968Z,3.00
2024-01-20T14:12:10.394Z,3.00
2024-01-20T14:14:41.154Z,3.10
2024-01-20T14:17:08.419Z,3.10
2024-01-20T14:19:35.537Z,3.10
2024-01-20T14:22:02.662Z,3.10
2024-01-20T14:24:29.766Z,3.10
2024-01-20T14:26:57.112Z,3.00
2024-01-20T14:29:24.210Z,2.90
2024-01-20T14:31:52.746Z,2.90
2024-01-20T14:34:21.076Z,2.90
2024-01-20T14:36:49.815Z,2.80
2024-01-20T14:39:19.850Z,2.70
2024-01-20T14:41:47.080Z,2.70
2024-01-20T14:44:14.830Z,2.70
2024-01-20T14:46:42.478Z,2.70
2024-01-20T14:49:10.139Z,2.70
2024-01-20T14:51:37.578Z,2.60
2024-01-20T14:54:05.789Z,2.50
2024-01-20T14:56:37.239Z,2.50
2024-01-20T14:59:04.672Z,2.40
2024-01-20T15:01:32.602Z,2.30
2024-01-20T15:04:00.228Z,2.20
2024-01-20T15:06:28.347Z,2.10
2024-01-20T15:08:55.607Z,2.00
2024-01-20T15:11:23.500Z,2.00
2024-01-20T15:13:50.989Z,1.90
2024-01-20T15:16:18.438Z,1.90
2024-01-20T15:18:45.919Z,1.80
2024-01-20T15:21:13.555Z,1.80
2024-01-20T15:23:40.741Z,1.80
2024-01-20T15:26:07.883Z,1.70
2024-01-20T15:28:35.238Z,1.60
2024-01-20T15:31:02.674Z,1.60
2024-01-20T15:33:30.252Z,1.60
2024-01-20T15:35:57.676Z,1.50
2024-01-20T15:38:24.685Z,1.40
2024-01-20T15:40:56.583Z,1.30
2024-01-20T15:43:24.080Z,1.30
2024-01-20T15:45:51.155Z,1.30
2024-01-20T15:48:18.252Z,1.40
2024-01-20T15:50:45.370Z,1.40
2024-01-20T15:53:12.481Z,1.40
2024-01-20T15:55:39.336Z,1.50
2024-01-20T15:58:06.416Z,1.50
2024-01-20T16:00:35.283Z,1.40
2024-01-20T16:03:05.929Z,1.40
2024-01-20T16:05:33.701Z,1.30
2024-01-20T16:08:00.766Z,1.20
2024-01-20T16:10:27.731Z,1.20
2024-01-20T16:12:54.829Z,1.10
2024-01-20T16:15:21.981Z,1.10
2024-01-20T16:17:49.156Z,1.00
2024-01-20T16:20:16.243Z,0.90
2024-01-20T16:22:46.276Z,0.80
2024-01-20T16:25:13.829Z,0.80
2024-01-20T16:27:41.029Z,0.80
2024-01-20T16:30:08.891Z,0.70
2024-01-20T16:32:36.262Z,0.70
2024-01-20T16:35:05.024Z,0.70
2024-01-20T16:37:32.073Z,0.60
2024-01-20T16:40:01.600Z,0.60
2024-01-20T16:42:29.054Z,0.50
2024-01-20T16:44:57.158Z,0.50
2024-01-20T16:47:27.102Z,0.50
2024-01-20T16:49:55.365Z,0.50
2024-01-20T16:52:22.385Z,0.50
2024-01-20T16:54:50.313Z,0.50
2024-01-20T16:57:17.557Z,0.50
2024-01-20T16:59:44.497Z,0.50
2024-01-20T17:02:11.461Z,0.50
2024-01-20T17:04:38.627Z,0.60
2024-01-20T17:07:06.397Z,0.60
2024-01-20T17:09:34.066Z,0.50
2024-01-20T17:12:01.381Z,0.50
2024-01-20T17:14:28.420Z,0.50
2024-01-20T17:16:55.594Z,0.50
2024-01-20T17:19:22.656Z,0.50
2024-01-20T17:21:49.691Z,0.60
2024-01-20T17:24:17.863Z,0.60
2024-01-20T17:26:44.978Z,0.50
2024-01-20T17:29:11.848Z,0.50
2024-01-20T17:31:39.402Z,0.50
2024-01-20T17:34:06.612Z,0.50
2024-01-20T17:36:33.940Z,0.50
2024-01-20T17:39:05.208Z,0.50
2024-01-20T17:41:33.179Z,0.40
2024-01-20T17:44:00.268Z,0.40
2024-01-20T17:46:27.418Z,0.40
2024-01-20T17:48:54.602Z,0.30
2024-01-20T17:51:22.172Z,0.10
2024-01-20T17:53:49.123Z,-0.10
2024-01-20T17:56:16.668Z,-0.10
2024-01-20T17:58:43.569Z,-0.10
2024-01-20T18:01:12.047Z,-0.10
2024-01-20T18:03:40.596Z,-0.10
2024-01-20T18:06:09.181Z,-0.10
2024-01-20T18:08:36.446Z,0.00
2024-01-20T18:11:03.950Z,0.00
2024-01-20T18:13:31.025Z,0.00
2024-01-20T18:16:01.074Z,0.00
2024-01-20T18:18:28.102Z,0.10
2024-01-20T18:20:55.220Z,0.00
2024-01-20T18:23:22.829Z,0.00
2024-01-20T18:25:49.789Z,0.00
2024-01-20T18:28:18.891Z,0.00
2024-01-20T18:30:46.518Z,0.00
2024-01-20T18:33:14.052Z,0.00
2024-01-20T18:35:41.207Z,0.00
2024-01-20T18:38:08.449Z,-0.10
2024-01-20T18:40:35.603Z,-0.10
2024-01-20T18:43:02.751Z,-0.10
2024-01-20T18:45:30.133Z,-0.10
2024-01-20T18:47:57.580Z,-0.10
2024-01-20T18:50:24.678Z,-0.10
2024-01-20T18:52:51.667Z,-0.10
2024-01-20T18:55:18.752Z,-0.20
2024-01-20T18:57:45.821Z,-0.20
2024-01-20T19:00:13.766Z,-0.10
2024-01-20T19:02:40.832Z,-0.20
2024-01-20T19:05:07.998Z,-0.10
2024-01-20T19:07:35.802Z,-0.10
2024-01-20T19:10:03.735Z,-0.10
2024-01-20T19:12:30.720Z,-0.10
2024-01-20T19:15:01.001Z,0.00
2024-01-20T19:17:29.325Z,0.00
2024-01-20T19:19:56.315Z,0.00
2024-01-20T19:22:23.818Z,0.10
2024-01-20T19:24:51.217Z,0.10
2024-01-20T19:27:18.258Z,0.10
2024-01-20T19:29:45.280Z,0.10
2024-01-20T19:32:12.280Z,0.10
2024-01-20T19:34:39.496Z,0.10
2024-01-20T19:37:06.570Z,0.10
2024-01-20T19:39:36.923Z,0.10
2024-01-20T19:42:04.485Z,0.10
2024-01-20T19:44:31.521Z,0.10
2024-01-20T19:46:58.466Z,0.10
2024-01-20T19:49:25.870Z,0.10
2024-01-20T19:51:53.063Z,0.00
2024-01-20T19:54:20.872Z,-0.10
2024-01-20T19:56:48.076Z,-0.10
2024-01-20T19:59:16.827Z,-0.10
2024-01-20T20:01:45.536Z,-0.10
2024-01-20T20:04:17.299Z,-0.20
2024-01-20T20:06:51.981Z,-0.10
2024-01-20T20:09:21.358Z,-0.10
2024-01-20T20:11:48.494Z,-0.10
2024-01-20T20:14:18.434Z,-0.10
2024-01-20T20:16:45.495Z,-0.10
2024-01-20T20:19:13.962Z,-0.10
2024-01-20T20:21:41.514Z,-0.10
2024-01-20T20:24:09.810Z,-0.10
2024-01-20T20:26:41.994Z,-0.20
2024-01-20T20:29:12.751Z,-0.30
2024-01-20T20:31:40.556Z,-0.30
2024-01-20T20:34:08.786Z,-0.40
2024-01-20T20:36:36.003Z,-0.50
2024-01-20T20:39:03.272Z,-0.60
2024-01-20T20:41:30.698Z,-0.60
2024-01-20T20:43:58.100Z,-0.70
2024-01-20T20:46:25.387Z,-0.70
2024-01-20T20:48:52.855Z,-0.70
2024-01-20T20:51:20.035Z,-0.70
2024-01-20T20:53:47.042Z,-0.70
2024-01-20T20:56:14.519Z,-0.60
2024-01-20T20:58:43.868Z,-0.70
2024-01-20T21:01:24.457Z,-0.70
2024-01-20T21:04:06.090Z,-0.70
2024-01-20T21:09:29.953Z,-0.70
2024-01-20T21:12:31.706Z,-0.80
2024-01-20T21:15:05.313Z,-0.80
2024-01-20T21:17:41.423Z,-0.70
2024-01-20T21:20:36.628Z,-0.70
2024-01-20T21:23:37.109Z,-0.70
2024-01-20T21:29:08.471Z,-0.60
2024-01-20T21:31:51.872Z,-0.60
2024-01-20T21:34:54.282Z,-0.60
2024-01-20T21:37:42.528Z,-0.60
2024-01-20T21:46:13.502Z,-0.60
2024-01-20T21:49:06.222Z,-0.60
2024-01-20T21:52:11.862Z,-0.60
2024-01-20T21:55:06.599Z,-0.70
2024-01-20T21:57:59.970Z,-0.90
2024-01-20T22:00:53.526Z,-1.00
2024-01-20T22:03:59.380Z,-1.00
2024-01-20T22:06:51.993Z,-1.10
2024-01-20T22:10:00.526Z,-1.00
2024-01-20T22:12:52.013Z,-1.00
2024-01-20T22:15:37.346Z,-0.90
2024-01-20T22:18:04.504Z,-0.90
2024-01-20T22:20:33.694Z,-0.90
2024-01-20T22:23:00.791Z,-0.90
2024-01-20T22:25:28.337Z,-0.80
2024-01-20T22:27:56.583Z,-0.90
2024-01-20T22:30:24.245Z,-1.00
2024-01-20T22:32:54.023Z,-1.10
2024-01-20T22:35:21.299Z,-1.30
2024-01-20T22:37:48.599Z,-1.30
2024-01-20T22:40:15.961Z,-1.30
2024-01-20T22:42:42.983Z,-1.50
2024-01-20T22:45:12.450Z,-1.50
2024-01-20T22:47:44.662Z,-1.50
2024-01-20T22:50:13.238Z,-1.40
2024-01-20T22:52:43.521Z,-1.40
2024-01-20T22:55:10.688Z,-1.30
2024-01-20T22:57:38.962Z,-1.30
2024-01-20T23:00:14.118Z,-1.40
2024-01-20T23:02:43.422Z,-1.30
2024-01-20T23:05:10.659Z,-1.30
2024-01-20T23:07:41.214Z,-1.30
2024-01-20T23:10:09.363Z,-1.20
2024-01-20T23:12:37.191Z,-1.30
2024-01-20T23:15:05.318Z,-1.30
2024-01-20T23:17:33.587Z,-1.30
2024-01-20T23:20:00.704Z,-1.40
2024-01-20T23:22:28.280Z,-1.30
2024-01-20T23:24:55.439Z,-1.30
2024-01-20T23:27:22.510Z,-1.30
2024-01-20T23:29:49.452Z,-1.30
2024-01-20T23:32:16.657Z,-1.40
2024-01-20T23:34:44.010Z,-1.50
2024-01-20T23:37:11.200Z,-1.60
2024-01-20T23:39:38.140Z,-1.60
2024-01-20T23:42:05.791Z,-1.60
2024-01-20T23:44:33.253Z,-1.70
2024-01-20T23:47:01.283Z,-1.80
2024-01-20T23:49:28.279Z,-1.80
2024-01-20T23:51:56.083Z,-1.80
2024-01-20T23:54:23.250Z,-1.80
2024-01-20T23:56:50.255Z,-1.80
2024-01-20T23:59:17.908Z,-1.70
